Time;durP1;ratioP1;P1;durP2;ratioP2;P2;SDS_P1;SDS_P2;PMS_P1;PMS_P2;Temp;Humidity;BMP_temperature;BMP_pressure;BME280_temperature;BME280_humidity;BME280_pressure;Samples;Min_cycle;Max_cycle;Signal;HPM_P1;HPM_P2
2021/06/13 00:02:20;;;;;;;;;;;;;;;;;;5005224;28;19924;-82
2021/06/13 00:04:46;;;;;;;;;;;;;;;;;;4999590;28;19917;-82
2021/06/13 00:07:11;;;;;;;;;;;;;;;;;;4984561;28;19924;-82
2021/06/13 00:09:36;;;;;;;;;;;;;;;;;;4999682;28;19917;-82
2021/06/13 00:12:02;;;;;;;;;;;;;;;;;;5014961;28;20286;-82
2021/06/13 00:14:27;;;;;;;;;;;;;;;;;;4994991;28;20382;-82
2021/06/13 00:16:52;;;;;;;;;;;;;;;;;;4989509;28;20432;-82
2021/06/13 00:19:18;;;;;;;;;;;;;;;;;;4992577;28;19913;-82
2021/06/13 00:21:43;;;;;;;;;;;;;;;;;;5064641;28;19969;-82
2021/06/13 00:24:08;;;;;;;;;;;;;;;;;;5087762;28;19920;-82
2021/06/13 00:26:34;;;;;;;;;;;;;;;;;;5010187;28;19923;-82
2021/06/13 00:28:59;;;;;;;;;;;;;;;;;;5117645;22;19919;-80
2021/06/13 00:31:24;;;;;;;;;;;;;;;;;;5098857;27;19950;-80
2021/06/13 00:33:50;;;;;;;;;;;;;;;;;;5100278;27;19907;-80
2021/06/13 00:36:16;;;;;;;;;;;;;;;;;;5100304;27;19912;-81
2021/06/13 00:38:41;;;;;;;;;;;;;;;;;;5099586;28;20538;-80
2021/06/13 00:41:06;;;;;;;;;;;;;;;;;;5074192;28;19983;-80
2021/06/13 00:43:32;;;;;;;;;;;;;;;;;;5059461;28;20377;-81
2021/06/13 00:45:57;;;;;;;;;;;;;;;;;;5091407;28;19915;-80
2021/06/13 00:48:22;;;;;;;;;;;;;;;;;;5116091;28;19911;-80
2021/06/13 00:50:50;;;;;;;;;;;;;;;;;;5093054;28;19950;-81
2021/06/13 00:53:15;;;;;;;;;;;;;;;;;;5099239;28;19911;-81
2021/06/13 00:55:40;;;;;;;;;;;;;;;;;;5116676;28;19971;-81
2021/06/13 00:58:06;;;;;;;;;;;;;;;;;;5096041;28;19911;-81
2021/06/13 01:00:31;;;;;;;;;;;;;;;;;;5113287;28;19928;-80
2021/06/13 01:02:57;;;;;;;;;;;;;;;;;;5096666;28;19908;-81
2021/06/13 01:05:22;;;;;;;;;;;;;;;;;;5080113;28;19923;-81
2021/06/13 01:07:53;;;;;;;;;;;;;;;;;;5075336;28;19907;-81
2021/06/13 01:10:22;;;;;;;;;;;;;;;;;;5115181;28;19917;-81
2021/06/13 01:12:47;;;;;;;;;;;;;;;;;;5116011;28;19911;-80
2021/06/13 01:15:13;;;;;;;;;;;;;;;;;;5115854;28;19911;-81
2021/06/13 01:17:57;;;;;;;;;;;;;;;;;;5099291;28;19911;-81
2021/06/13 01:20:26;;;;;;;;;;;;;;;;;;5130704;28;19911;-81
2021/06/13 01:23:14;;;;;;;;;;;;;;;;;;5079264;28;20018;-81
2021/06/13 01:25:55;;;;;;;;;;;;;;;;;;5090539;27;20010;-81
2021/06/13 01:28:39;;;;;;;;;;;;;;;;;;5118681;27;20018;-81
2021/06/13 01:31:04;;;;;;;;;;;;;;;;;;5120225;27;19911;-81
2021/06/13 01:33:29;;;;;;;;;;;;;;;;;;5119079;27;19956;-81
2021/06/13 01:35:54;;;;;;;;;;;;;;;;;;5100255;28;19912;-80
2021/06/13 01:38:20;;;;;;;;;;;;;;;;;;5117530;27;19912;-81
2021/06/13 01:40:45;;;;;;;;;;;;;;;;;;5102638;27;19972;-81
2021/06/13 01:43:10;;;;;;;;;;;;;;;;;;5103574;27;20289;-81
2021/06/13 01:45:39;;;;;;;;;;;;;;;;;;5100001;28;19923;-81
2021/06/13 01:48:05;;;;;;;;;;;;;;;;;;5119565;27;19961;-81
2021/06/13 01:50:30;;;;;;;;;;;;;;;;;;5119846;27;19918;-81
2021/06/13 01:52:56;;;;;;;;;;;;;;;;;;5099435;28;19923;-81
2021/06/13 01:55:21;;;;;;;;;;;;;;;;;;5067414;27;19920;-80
2021/06/13 01:57:46;;;;;;;;;;;;;;;;;;5085952;28;20331;-80
2021/06/13 02:00:12;;;;;;;;;;;;;;;;;;5103478;28;19916;-81
2021/06/13 02:02:37;;;;;;;;;;;;;;;;;;5098511;28;20270;-80
2021/06/13 02:05:03;;;;;;;;;;;;;;;;;;5116437;28;19937;-81
2021/06/13 02:07:28;;;;;;;;;;;;;;;;;;5109564;28;19918;-80
2021/06/13 02:09:53;;;;;;;;;;;;;;;;;;5093250;27;19911;-81
2021/06/13 02:12:19;;;;;;;;;;;;;;;;;;5101437;27;19918;-81
2021/06/13 02:14:44;;;;;;;;;;;;;;;;;;5102765;27;19997;-81
2021/06/13 02:17:09;;;;;;;;;;;;;;;;;;5119247;27;20382;-80
2021/06/13 02:19:35;;;;;;;;;;;;;;;;;;5099748;27;20362;-81
2021/06/13 02:22:00;;;;;;;;;;;;;;;;;;5102031;27;20357;-81
2021/06/13 02:24:29;;;;;;;;;;;;;;;;;;5101076;27;20381;-80
2021/06/13 02:26:55;;;;;;;;;;;;;;;;;;5102426;27;19923;-81
2021/06/13 02:29:20;;;;;;;;;;;;;;;;;;5102270;27;19911;-80
2021/06/13 02:31:46;;;;;;;;;;;;;;;;;;5118892;27;19911;-81
2021/06/13 02:34:13;;;;;;;;;;;;;;;;;;5093267;28;20006;-81
2021/06/13 02:36:38;;;;;;;;;;;;;;;;;;5116843;27;19918;-80
2021/06/13 02:39:04;;;;;;;;;;;;;;;;;;5135126;27;19911;-80
2021/06/13 02:41:30;;;;;;;;;;;;;;;;;;5116252;27;20373;-80
2021/06/13 02:43:55;;;;;;;;;;;;;;;;;;5098040;28;19916;-80
2021/06/13 02:46:20;;;;;;;;;;;;;;;;;;5115388;28;20402;-81
2021/06/13 02:48:46;;;;;;;;;;;;;;;;;;5109313;27;19916;-81
2021/06/13 02:51:12;;;;;;;;;;;;;;;;;;5093847;28;19927;-80
2021/06/13 02:53:44;;;;;;;;;;;;;;;;;;5106119;28;19911;-80
2021/06/13 02:56:18;;;;;;;;;;;;;;;;;;5098271;28;19962;-80
2021/06/13 02:58:45;;;;;;;;;;;;;;;;;;5096616;27;19995;-81
2021/06/13 03:01:14;;;;;;;;;;;;;;;;;;5101176;27;19912;-81
2021/06/13 03:03:39;;;;;;;;;;;;;;;;;;5101765;27;19911;-81
2021/06/13 03:06:13;;;;;;;;;;;;;;;;;;5101475;27;19915;-81
2021/06/13 03:08:38;;;;;;;;;;;;;;;;;;5101053;27;19919;-80
2021/06/13 03:11:03;;;;;;;;;;;;;;;;;;5101430;27;19907;-81
2021/06/13 03:13:28;;;;;;;;;;;;;;;;;;5117343;27;20392;-81
2021/06/13 03:15:53;;;;;;;;;;;;;;;;;;5095410;27;19911;-81
2021/06/13 03:18:19;;;;;;;;;;;;;;;;;;5100050;28;19912;-81
2021/06/13 03:20:44;;;;;;;;;;;;;;;;;;5072119;28;20005;-81
2021/06/13 03:23:09;;;;;;;;;;;;;;;;;;5118182;27;19911;-81
2021/06/13 03:25:34;;;;;;;;;;;;;;;;;;5117940;27;19927;-80
2021/06/13 03:28:00;;;;;;;;;;;;;;;;;;5100403;27;19916;-81
2021/06/13 03:30:25;;;;;;;;;;;;;;;;;;5100288;27;19915;-81
2021/06/13 03:32:50;;;;;;;;;;;;;;;;;;5118147;27;19997;-81
2021/06/13 03:35:15;;;;;;;;;;;;;;;;;;5117961;27;19915;-81
2021/06/13 03:37:41;;;;;;;;;;;;;;;;;;5100697;27;19912;-81
2021/06/13 03:40:06;;;;;;;;;;;;;;;;;;5118230;27;19915;-81
2021/06/13 03:42:31;;;;;;;;;;;;;;;;;;5118227;27;20366;-80
2021/06/13 03:44:57;;;;;;;;;;;;;;;;;;5099841;27;19939;-81
2021/06/13 03:47:22;;;;;;;;;;;;;;;;;;5117351;27;19915;-80
2021/06/13 03:49:47;;;;;;;;;;;;;;;;;;5100360;27;20418;-80
2021/06/13 03:52:13;;;;;;;;;;;;;;;;;;5100717;27;19920;-81
2021/06/13 03:54:38;;;;;;;;;;;;;;;;;;5095802;27;19958;-80
2021/06/13 03:57:04;;;;;;;;;;;;;;;;;;5096272;27;19918;-81
2021/06/13 03:59:29;;;;;;;;;;;;;;;;;;5100804;27;19964;-81
2021/06/13 04:01:55;;;;;;;;;;;;;;;;;;5117481;27;19912;-81
2021/06/13 04:04:20;;;;;;;;;;;;;;;;;;5096659;27;19956;-80
2021/06/13 04:06:46;;;;;;;;;;;;;;;;;;5110384;27;19979;-81
2021/06/13 04:09:11;;;;;;;;;;;;;;;;;;5099917;27;19921;-81
2021/06/13 04:11:36;;;;;;;;;;;;;;;;;;5100641;27;19955;-81
2021/06/13 04:14:02;;;;;;;;;;;;;;;;;;5100205;27;20130;-81
2021/06/13 04:16:28;;;;;;;;;;;;;;;;;;5100001;27;19911;-81
2021/06/13 04:18:53;;;;;;;;;;;;;;;;;;5116777;27;19920;-81
2021/06/13 04:21:18;;;;;;;;;;;;;;;;;;5096192;28;19911;-80
2021/06/13 04:23:44;;;;;;;;;;;;;;;;;;5113992;27;19954;-81
2021/06/13 04:26:12;;;;;;;;;;;;;;;;;;5090792;28;19937;-81
2021/06/13 04:28:37;;;;;;;;;;;;;;;;;;5091313;28;19919;-80
2021/06/13 04:31:02;;;;;;;;;;;;;;;;;;5106441;28;19959;-81
2021/06/13 04:33:31;;;;;;;;;;;;;;;;;;5109614;27;19914;-81
2021/06/13 04:35:56;;;;;;;;;;;;;;;;;;5116691;27;20377;-81
2021/06/13 04:38:22;;;;;;;;;;;;;;;;;;5099916;27;19914;-81
2021/06/13 04:40:47;;;;;;;;;;;;;;;;;;5099961;27;20307;-81
2021/06/13 04:43:12;;;;;;;;;;;;;;;;;;5099976;27;19968;-81
2021/06/13 04:45:37;;;;;;;;;;;;;;;;;;5096709;28;19966;-81
2021/06/13 04:48:06;;;;;;;;;;;;;;;;;;5097067;28;20416;-81
2021/06/13 04:50:32;;;;;;;;;;;;;;;;;;5103247;28;19915;-81
2021/06/13 04:52:57;;;;;;;;;;;;;;;;;;5095839;28;20419;-81
2021/06/13 04:55:30;;;;;;;;;;;;;;;;;;5113863;28;19919;-81
2021/06/13 04:58:00;;;;;;;;;;;;;;;;;;5113417;28;19907;-81
2021/06/13 05:00:25;;;;;;;;;;;;;;;;;;5115549;28;19972;-81
2021/06/13 05:02:50;;;;;;;;;;;;;;;;;;5098104;28;19955;-81
2021/06/13 05:05:16;;;;;;;;;;;;;;;;;;5098739;28;19916;-81
2021/06/13 05:07:41;;;;;;;;;;;;;;;;;;5100022;28;19950;-81
2021/06/13 05:10:08;;;;;;;;;;;;;;;;;;5099759;28;19907;-81
2021/06/13 05:12:43;;;;;;;;;;;;;;;;;;5100058;28;19934;-81
2021/06/13 05:15:08;;;;;;;;;;;;;;;;;;5091797;28;19916;-80
2021/06/13 05:17:34;;;;;;;;;;;;;;;;;;5081925;28;20377;-80
2021/06/13 05:19:59;;;;;;;;;;;;;;;;;;5116161;28;19911;-81
2021/06/13 05:22:24;;;;;;;;;;;;;;;;;;5116979;28;20277;-81
2021/06/13 05:24:49;;;;;;;;;;;;;;;;;;5099335;28;19942;-81
2021/06/13 05:27:14;;;;;;;;;;;;;;;;;;5099183;28;19936;-81
2021/06/13 05:29:40;;;;;;;;;;;;;;;;;;5115797;28;19911;-80
2021/06/13 05:32:05;;;;;;;;;;;;;;;;;;5099384;28;20392;-81
2021/06/13 05:34:31;;;;;;;;;;;;;;;;;;5116164;28;19912;-81
2021/06/13 05:36:56;;;;;;;;;;;;;;;;;;5116526;28;20392;-81
2021/06/13 05:39:21;;;;;;;;;;;;;;;;;;5116991;28;19914;-81
2021/06/13 05:41:46;;;;;;;;;;;;;;;;;;5099521;28;19961;-80
2021/06/13 05:44:11;;;;;;;;;;;;;;;;;;5116143;28;20388;-81
2021/06/13 05:46:37;;;;;;;;;;;;;;;;;;5095848;28;19915;-81
2021/06/13 05:49:02;;;;;;;;;;;;;;;;;;5099259;28;19958;-81
2021/06/13 05:51:27;;;;;;;;;;;;;;;;;;5098771;28;19916;-80
2021/06/13 05:53:52;;;;;;;;;;;;;;;;;;5115707;28;20001;-81
2021/06/13 05:56:18;;;;;;;;;;;;;;;;;;5116606;28;19914;-81
2021/06/13 05:58:43;;;;;;;;;;;;;;;;;;5115550;28;19939;-81
2021/06/13 06:01:08;;;;;;;;;;;;;;;;;;5076447;28;19920;-81
2021/06/13 06:03:33;;;;;;;;;;;;;;;;;;5097696;28;19951;-81
2021/06/13 06:05:58;;;;;;;;;;;;;;;;;;5099573;28;19996;-81
2021/06/13 06:08:26;;;;;;;;;;;;;;;;;;5099136;28;19915;-80
2021/06/13 06:10:52;;;;;;;;;;;;;;;;;;5114493;28;19912;-80
2021/06/13 06:13:17;;;;;;;;;;;;;;;;;;5082727;28;19915;-79
2021/06/13 06:15:42;;;;;;;;;;;;;;;;;;5103186;27;19911;-80
2021/06/13 06:18:07;;;;;;;;;;;;;;;;;;5089452;27;20335;-81
2021/06/13 06:20:33;;;;;;;;;;;;;;;;;;5112287;28;19943;-80
2021/06/13 06:22:58;;;;;;;;;;;;;;;;;;5078154;28;19907;-80
2021/06/13 06:25:23;;;;;;;;;;;;;;;;;;5086770;28;19920;-80
2021/06/13 06:27:48;;;;;;;;;;;;;;;;;;5083625;28;19943;-81
2021/06/13 06:30:14;;;;;;;;;;;;;;;;;;5077834;22;19921;-82
2021/06/13 06:32:39;;;;;;;;;;;;;;;;;;5019783;28;19913;-82
2021/06/13 06:35:05;;;;;;;;;;;;;;;;;;5020113;28;20368;-83
2021/06/13 06:37:30;;;;;;;;;;;;;;;;;;5097973;27;19913;-83
2021/06/13 06:39:55;;;;;;;;;;;;;;;;;;5098773;28;19945;-83
2021/06/13 06:42:21;;;;;;;;;;;;;;;;;;5098829;28;19922;-83
2021/06/13 06:44:46;;;;;;;;;;;;;;;;;;5080140;28;20363;-83
2021/06/13 06:47:11;;;;;;;;;;;;;;;;;;5090157;28;19917;-83
2021/06/13 06:49:36;;;;;;;;;;;;;;;;;;5094118;28;19915;-83
2021/06/13 06:52:02;;;;;;;;;;;;;;;;;;5069749;28;19913;-83
2021/06/13 06:54:27;;;;;;;;;;;;;;;;;;5068682;28;19909;-83
2021/06/13 06:56:52;;;;;;;;;;;;;;;;;;5068586;28;19909;-83
2021/06/13 06:59:17;;;;;;;;;;;;;;;;;;5086149;28;19913;-83
2021/06/13 07:01:42;;;;;;;;;;;;;;;;;;5076700;28;19913;-83
2021/06/13 07:04:08;;;;;;;;;;;;;;;;;;5106618;28;19913;-83
2021/06/13 07:06:33;;;;;;;;;;;;;;;;;;5105844;28;20379;-83
2021/06/13 07:08:58;;;;;;;;;;;;;;;;;;5106085;28;19963;-83
2021/06/13 07:11:23;;;;;;;;;;;;;;;;;;5106274;28;19951;-83
2021/06/13 07:13:49;;;;;;;;;;;;;;;;;;5102834;28;19909;-83
2021/06/13 07:16:14;;;;;;;;;;;;;;;;;;5068058;28;19909;-83
2021/06/13 07:18:39;;;;;;;;;;;;;;;;;;5091265;28;19961;-83
2021/06/13 07:21:05;;;;;;;;;;;;;;;;;;5104839;28;19909;-83
2021/06/13 07:23:30;;;;;;;;;;;;;;;;;;5121824;27;20375;-83
2021/06/13 07:25:55;;;;;;;;;;;;;;;;;;5105334;28;19920;-83
2021/06/13 07:28:21;;;;;;;;;;;;;;;;;;5104511;27;20398;-83
2021/06/13 07:30:46;;;;;;;;;;;;;;;;;;5084406;28;19913;-83
2021/06/13 07:33:11;;;;;;;;;;;;;;;;;;5104529;28;19913;-80
2021/06/13 07:35:37;;;;;;;;;;;;;;;;;;5103553;28;19909;-80
2021/06/13 07:38:02;;;;;;;;;;;;;;;;;;5090789;28;20287;-78
2021/06/13 07:40:28;;;;;;;;;;;;;;;;;;5068671;28;19917;-80
2021/06/13 07:42:53;;;;;;;;;;;;;;;;;;5085136;28;19919;-82
2021/06/13 07:45:18;;;;;;;;;;;;;;;;;;5134828;27;19945;-82
2021/06/13 07:47:43;;;;;;;;;;;;;;;;;;5099662;28;19893;-82
2021/06/13 07:50:09;;;;;;;;;;;;;;;;;;5070340;28;19916;-78
2021/06/13 07:52:35;;;;;;;;;;;;;;;;;;5096126;28;19978;-79
2021/06/13 07:55:00;;;;;;;;;;;;;;;;;;5117041;27;19957;-78
2021/06/13 07:57:25;;;;;;;;;;;;;;;;;;5033041;28;19909;-78
2021/06/13 07:59:50;;;;;;;;;;;;;;;;;;5118475;27;19913;-79
2021/06/13 08:02:16;;;;;;;;;;;;;;;;;;5118706;27;20391;-78
2021/06/13 08:04:49;;;;;;;;;;;;;;;;;;5116337;27;20054;-79
2021/06/13 08:07:14;;;;;;;;;;;;;;;;;;5077192;27;19990;-79
2021/06/13 08:09:40;;;;;;;;;;;;;;;;;;4995675;28;20023;-79
2021/06/13 08:12:05;;;;;;;;;;;;;;;;;;4996250;28;19910;-79
2021/06/13 08:14:30;;;;;;;;;;;;;;;;;;5097745;27;19959;-79
2021/06/13 08:16:55;;;;;;;;;;;;;;;;;;5063874;28;19910;-79
2021/06/13 08:19:20;;;;;;;;;;;;;;;;;;5090356;28;19913;-79
2021/06/13 08:21:48;;;;;;;;;;;;;;;;;;5119086;27;19916;-79
2021/06/13 08:24:14;;;;;;;;;;;;;;;;;;5097067;28;20282;-79
2021/06/13 08:26:39;;;;;;;;;;;;;;;;;;5080643;28;19984;-79
2021/06/13 08:29:04;;;;;;;;;;;;;;;;;;5088956;28;19958;-79
2021/06/13 08:31:29;;;;;;;;;;;;;;;;;;5081285;28;20010;-79
2021/06/13 08:33:55;;;;;;;;;;;;;;;;;;5109200;27;20010;-79
2021/06/13 08:36:20;;;;;;;;;;;;;;;;;;5097025;28;19912;-79
2021/06/13 08:38:46;;;;;;;;;;;;;;;;;;5093960;27;20358;-79
2021/06/13 08:41:11;;;;;;;;;;;;;;;;;;5095276;28;19911;-79
2021/06/13 08:43:37;;;;;;;;;;;;;;;;;;5114034;28;19912;-79
2021/06/13 08:46:03;;;;;;;;;;;;;;;;;;5080402;28;20018;-79
2021/06/13 08:48:28;;;;;;;;;;;;;;;;;;5097363;28;20005;-79
2021/06/13 08:50:54;;;;;;;;;;;;;;;;;;5114590;28;19954;-79
2021/06/13 08:53:19;;;;;;;;;;;;;;;;;;5097056;28;19914;-79
2021/06/13 08:55:44;;;;;;;;;;;;;;;;;;5097169;28;19907;-79
2021/06/13 08:58:11;;;;;;;;;;;;;;;;;;5098840;28;20367;-79
2021/06/13 09:00:36;;;;;;;;;;;;;;;;;;5099301;28;19912;-79
2021/06/13 09:03:01;;;;;;;;;;;;;;;;;;5082532;28;20014;-79
2021/06/13 09:05:27;;;;;;;;;;;;;;;;;;5098116;28;19912;-79
2021/06/13 09:07:53;;;;;;;;;;;;;;;;;;5097875;28;20285;-79
2021/06/13 09:10:19;;;;;;;;;;;;;;;;;;5080887;28;20432;-79
2021/06/13 09:12:46;;;;;;;;;;;;;;;;;;5081050;28;19915;-79
2021/06/13 09:15:11;;;;;;;;;;;;;;;;;;5116026;28;20343;-79
2021/06/13 09:17:38;;;;;;;;;;;;;;;;;;5080577;28;19943;-79
2021/06/13 09:20:04;;;;;;;;;;;;;;;;;;5081616;28;19908;-79
2021/06/13 09:22:29;;;;;;;;;;;;;;;;;;5098410;28;19911;-79
2021/06/13 09:25:08;;;;;;;;;;;;;;;;;;5097592;28;20001;-78
2021/06/13 09:27:34;;;;;;;;;;;;;;;;;;5080799;28;19912;-79
2021/06/13 09:29:59;;;;;;;;;;;;;;;;;;5080590;28;19998;-79
2021/06/13 09:32:24;;;;;;;;;;;;;;;;;;5115283;28;19908;-79
2021/06/13 09:35:10;;;;;;;;;;;;;;;;;;5080163;28;19908;-79
2021/06/13 09:37:36;;;;;;;;;;;;;;;;;;5096689;28;20325;-79
2021/06/13 09:40:13;;;;;;;;;;;;;;;;;;5097236;28;19932;-79
2021/06/13 09:42:43;;;;;;;;;;;;;;;;;;5081264;28;19908;-79
2021/06/13 09:45:18;;;;;;;;;;;;;;;;;;5092455;28;19955;-79
2021/06/13 09:47:43;;;;;;;;;;;;;;;;;;5084580;28;19989;-80
2021/06/13 09:50:09;;;;;;;;;;;;;;;;;;5083715;28;19912;-80
2021/06/13 09:52:34;;;;;;;;;;;;;;;;;;5100818;28;20317;-81
2021/06/13 09:55:12;;;;;;;;;;;;;;;;;;5092684;27;19911;-80
2021/06/13 09:57:57;;;;;;;;;;;;;;;;;;5101780;27;19967;-80
2021/06/13 10:00:26;;;;;;;;;;;;;;;;;;5120835;27;19907;-80
2021/06/13 10:02:51;;;;;;;;;;;;;;;;;;5108070;27;19915;-80
2021/06/13 10:05:16;;;;;;;;;;;;;;;;;;5100347;27;20369;-80
2021/06/13 10:07:41;;;;;;;;;;;;;;;;;;5120961;27;19914;-80
2021/06/13 10:10:07;;;;;;;;;;;;;;;;;;5120982;27;19907;-80
2021/06/13 10:12:32;;;;;;;;;;;;;;;;;;5121293;27;20289;-80
2021/06/13 10:14:58;;;;;;;;;;;;;;;;;;5112220;27;19918;-80
2021/06/13 10:17:30;;;;;;;;;;;;;;;;;;5103823;27;19907;-80
2021/06/13 10:19:56;;;;;;;;;;;;;;;;;;5103838;27;20331;-80
2021/06/13 10:22:23;;;;;;;;;;;;;;;;;;5120503;27;20331;-80
2021/06/13 10:24:48;;;;;;;;;;;;;;;;;;5100825;27;20395;-80
2021/06/13 10:27:14;;;;;;;;;;;;;;;;;;5104826;28;19915;-80
2021/06/13 10:29:40;;;;;;;;;;;;;;;;;;5100147;28;19912;-80
2021/06/13 10:32:06;;;;;;;;;;;;;;;;;;5083098;28;19990;-80
2021/06/13 10:34:31;;;;;;;;;;;;;;;;;;5098206;27;19957;-80
2021/06/13 10:36:57;;;;;;;;;;;;;;;;;;5099804;28;19916;-80
2021/06/13 10:39:23;;;;;;;;;;;;;;;;;;5083215;28;20362;-80
2021/06/13 10:41:49;;;;;;;;;;;;;;;;;;5099708;27;19911;-80
2021/06/13 10:44:15;;;;;;;;;;;;;;;;;;5099946;27;19918;-80
2021/06/13 10:46:41;;;;;;;;;;;;;;;;;;5093451;28;20282;-80
2021/06/13 10:49:09;;;;;;;;;;;;;;;;;;5102559;28;19912;-80
2021/06/13 10:51:41;;;;;;;;;;;;;;;;;;5117874;27;19907;-80
2021/06/13 10:54:18;;;;;;;;;;;;;;;;;;5124263;27;19946;-80
2021/06/13 10:56:44;;;;;;;;;;;;;;;;;;5104449;28;19907;-80
2021/06/13 10:59:15;;;;;;;;;;;;;;;;;;5122299;27;20334;-80
2021/06/13 11:02:03;;;;;;;;;;;;;;;;;;5107748;27;20414;-80
2021/06/13 11:04:47;;;;;;;;;;;;;;;;;;5107632;27;20369;-80
2021/06/13 11:07:34;;;;;;;;;;;;;;;;;;5127974;27;19962;-80
2021/06/13 11:10:07;;;;;;;;;;;;;;;;;;5096678;28;19908;-80
2021/06/13 11:12:49;;;;;;;;;;;;;;;;;;5101066;28;19908;-80
2021/06/13 11:15:17;;;;;;;;;;;;;;;;;;5100563;28;19908;-80
2021/06/13 11:18:07;;;;;;;;;;;;;;;;;;5096565;27;20010;-80
2021/06/13 11:20:48;;;;;;;;;;;;;;;;;;5103860;27;20009;-80
2021/06/13 11:23:13;;;;;;;;;;;;;;;;;;5098705;28;19911;-80
2021/06/13 11:25:39;;;;;;;;;;;;;;;;;;5104069;27;19912;-80
2021/06/13 11:28:07;;;;;;;;;;;;;;;;;;5103983;28;20362;-80
2021/06/13 11:30:33;;;;;;;;;;;;;;;;;;5122473;28;19918;-80
2021/06/13 11:32:59;;;;;;;;;;;;;;;;;;5088009;28;19984;-80
2021/06/13 11:35:32;;;;;;;;;;;;;;;;;;5105740;27;19921;-80
2021/06/13 11:38:09;;;;;;;;;;;;;;;;;;5124897;27;19911;-80
2021/06/13 11:40:38;;;;;;;;;;;;;;;;;;5143395;27;19911;-80
2021/06/13 11:43:07;;;;;;;;;;;;;;;;;;5107387;27;19908;-80
2021/06/13 11:45:32;;;;;;;;;;;;;;;;;;5121092;27;19912;-79
2021/06/13 11:48:36;;;;;;;;;;;;;;;;;;5102486;28;19912;-79
2021/06/13 11:51:07;;;;;;;;;;;;;;;;;;5021126;28;19916;-79
2021/06/13 11:53:47;;;;;;;;;;;;;;;;;;5045968;28;20334;-79
2021/06/13 11:56:36;;;;;;;;;;;;;;;;;;5087077;28;19915;-79
2021/06/13 11:59:05;;;;;;;;;;;;;;;;;;5102199;28;20378;-79
2021/06/13 12:01:33;;;;;;;;;;;;;;;;;;5137674;27;19911;-79
2021/06/13 12:03:58;;;;;;;;;;;;;;;;;;5104841;27;19919;-79
2021/06/13 12:06:23;;;;;;;;;;;;;;;;;;5105614;27;20296;-79
2021/06/13 12:08:49;;;;;;;;;;;;;;;;;;5121010;27;19911;-79
2021/06/13 12:11:33;;;;;;;;;;;;;;;;;;5088587;28;19919;-79
2021/06/13 12:13:59;;;;;;;;;;;;;;;;;;5097960;28;19912;-79
2021/06/13 12:16:27;;;;;;;;;;;;;;;;;;5080640;28;19907;-80
2021/06/13 12:19:03;;;;;;;;;;;;;;;;;;5080498;28;20067;-80
2021/06/13 12:21:29;;;;;;;;;;;;;;;;;;5085091;28;19919;-81
2021/06/13 12:24:01;;;;;;;;;;;;;;;;;;5114034;27;19911;-79
2021/06/13 12:29:26;;;;;;;;;;;;;;;;;;5113273;27;19922;-76
2021/06/13 12:31:51;;;;;;;;;;;;;;;;;;5090710;22;19951;-82
2021/06/13 12:34:20;;;;;;;;;;;;;;;;;;5060450;28;19919;-82
2021/06/13 12:36:49;;;;;;;;;;;;;;;;;;5059748;28;20285;-82
2021/06/13 12:39:27;;;;;;;;;;;;;;;;;;5076998;28;19908;-82
2021/06/13 12:41:52;;;;;;;;;;;;;;;;;;5076706;28;19923;-82
2021/06/13 12:44:17;;;;;;;;;;;;;;;;;;5077018;28;19908;-82
2021/06/13 12:46:43;;;;;;;;;;;;;;;;;;5076954;28;20084;-83
2021/06/13 12:49:08;;;;;;;;;;;;;;;;;;5060001;28;20374;-82
2021/06/13 12:51:35;;;;;;;;;;;;;;;;;;5059087;28;19912;-83
2021/06/13 12:54:00;;;;;;;;;;;;;;;;;;5060991;28;19919;-83
2021/06/13 12:56:26;;;;;;;;;;;;;;;;;;5060065;28;19912;-83
2021/06/13 12:58:51;;;;;;;;;;;;;;;;;;5060383;28;20048;-82
2021/06/13 13:01:16;;;;;;;;;;;;;;;;;;5060470;28;19914;-82
2021/06/13 13:03:42;;;;;;;;;;;;;;;;;;5060018;28;20294;-83
2021/06/13 13:06:08;;;;;;;;;;;;;;;;;;5076841;28;19912;-82
2021/06/13 13:08:40;;;;;;;;;;;;;;;;;;5076599;28;20018;-83
2021/06/13 13:11:06;;;;;;;;;;;;;;;;;;5060879;28;20010;-84
2021/06/13 13:13:42;;;;;;;;;;;;;;;;;;5077903;28;19955;-83
2021/06/13 13:16:23;;;;;;;;;;;;;;;;;;5077397;28;19911;-83
2021/06/13 13:18:48;;;;;;;;;;;;;;;;;;5057320;28;20388;-83
2021/06/13 13:21:14;;;;;;;;;;;;;;;;;;5043679;28;19946;-84
2021/06/13 13:23:43;;;;;;;;;;;;;;;;;;5042847;28;19965;-85
2021/06/13 13:26:08;;;;;;;;;;;;;;;;;;5058906;28;19912;-85
2021/06/13 13:28:36;;;;;;;;;;;;;;;;;;5042149;28;19915;-86
2021/06/13 13:31:08;;;;;;;;;;;;;;;;;;5042347;28;19912;-85
2021/06/13 13:33:35;;;;;;;;;;;;;;;;;;5058785;28;20267;-84
2021/06/13 13:36:04;;;;;;;;;;;;;;;;;;5058303;28;19915;-85
2021/06/13 13:38:48;;;;;;;;;;;;;;;;;;5041244;28;19912;-84
2021/06/13 13:41:16;;;;;;;;;;;;;;;;;;5058301;28;19908;-84
2021/06/13 13:44:00;;;;;;;;;;;;;;;;;;5059249;28;19969;-84
2021/06/13 13:46:32;;;;;;;;;;;;;;;;;;5059423;28;19959;-84
2021/06/13 13:48:58;;;;;;;;;;;;;;;;;;5043589;28;20359;-85
2021/06/13 13:51:23;;;;;;;;;;;;;;;;;;5043769;28;19912;-85
2021/06/13 13:53:51;;;;;;;;;;;;;;;;;;5060751;28;20371;-83
2021/06/13 13:56:20;;;;;;;;;;;;;;;;;;5043588;28;19908;-81
2021/06/13 13:58:45;;;;;;;;;;;;;;;;;;5043603;28;19954;-81
2021/06/13 14:01:10;;;;;;;;;;;;;;;;;;5044640;28;20337;-81
2021/06/13 14:03:35;;;;;;;;;;;;;;;;;;5059854;28;19908;-81
2021/06/13 14:06:01;;;;;;;;;;;;;;;;;;5043354;28;20014;-81
2021/06/13 14:08:26;;;;;;;;;;;;;;;;;;5043172;28;19908;-81
2021/06/13 14:10:51;;;;;;;;;;;;;;;;;;5060811;28;19913;-81
2021/06/13 14:13:17;;;;;;;;;;;;;;;;;;5043493;28;19909;-81
2021/06/13 14:15:42;;;;;;;;;;;;;;;;;;5044223;28;19908;-81
2021/06/13 14:18:07;;;;;;;;;;;;;;;;;;5047915;28;19954;-80
2021/06/13 14:20:33;;;;;;;;;;;;;;;;;;5080157;28;19908;-81
2021/06/13 14:22:58;;;;;;;;;;;;;;;;;;5063722;28;19915;-81
2021/06/13 14:25:23;;;;;;;;;;;;;;;;;;5080123;28;19971;-81
2021/06/13 14:27:49;;;;;;;;;;;;;;;;;;5063497;28;19908;-81
2021/06/13 14:30:14;;;;;;;;;;;;;;;;;;5080245;28;19912;-81
2021/06/13 14:32:40;;;;;;;;;;;;;;;;;;5079246;28;20306;-81
2021/06/13 14:35:05;;;;;;;;;;;;;;;;;;5060207;28;19965;-81
2021/06/13 14:37:31;;;;;;;;;;;;;;;;;;5060282;28;19916;-81
2021/06/13 14:39:56;;;;;;;;;;;;;;;;;;5042604;28;19912;-81
2021/06/13 14:42:24;;;;;;;;;;;;;;;;;;5043197;28;20362;-80
2021/06/13 14:44:50;;;;;;;;;;;;;;;;;;5042823;28;19908;-81
2021/06/13 14:47:15;;;;;;;;;;;;;;;;;;5042752;28;19920;-81
2021/06/13 14:49:40;;;;;;;;;;;;;;;;;;5042617;28;19912;-81
2021/06/13 14:52:05;;;;;;;;;;;;;;;;;;5042900;28;19918;-81
2021/06/13 14:54:31;;;;;;;;;;;;;;;;;;5059476;28;19908;-81
2021/06/13 14:56:56;;;;;;;;;;;;;;;;;;5059663;28;19909;-81
2021/06/13 14:59:21;;;;;;;;;;;;;;;;;;5049538;28;19934;-81
2021/06/13 15:01:46;;;;;;;;;;;;;;;;;;5061820;28;20367;-81
2021/06/13 15:04:11;;;;;;;;;;;;;;;;;;5062748;28;20589;-81
2021/06/13 15:06:37;;;;;;;;;;;;;;;;;;5063175;28;19915;-81
2021/06/13 15:09:02;;;;;;;;;;;;;;;;;;5079451;28;19908;-81
2021/06/13 15:11:30;;;;;;;;;;;;;;;;;;5079065;28;19915;-81
2021/06/13 15:13:55;;;;;;;;;;;;;;;;;;5062229;28;19966;-81
2021/06/13 15:16:20;;;;;;;;;;;;;;;;;;5062002;28;20336;-81
2021/06/13 15:18:46;;;;;;;;;;;;;;;;;;5062230;28;19908;-81
2021/06/13 15:21:11;;;;;;;;;;;;;;;;;;5061362;28;19982;-80
2021/06/13 15:23:37;;;;;;;;;;;;;;;;;;5061289;28;19951;-81
2021/06/13 15:26:02;;;;;;;;;;;;;;;;;;5061822;28;20393;-81
2021/06/13 15:28:27;;;;;;;;;;;;;;;;;;5078307;28;19908;-81
2021/06/13 15:30:53;;;;;;;;;;;;;;;;;;5079487;28;19915;-81
2021/06/13 15:33:18;;;;;;;;;;;;;;;;;;5096725;28;19919;-81
2021/06/13 15:35:44;;;;;;;;;;;;;;;;;;5079790;28;19912;-80
2021/06/13 15:38:09;;;;;;;;;;;;;;;;;;5062895;28;19912;-81
2021/06/13 15:40:34;;;;;;;;;;;;;;;;;;5080624;28;19908;-81
2021/06/13 15:43:03;;;;;;;;;;;;;;;;;;5080660;28;20267;-80
2021/06/13 15:45:29;;;;;;;;;;;;;;;;;;5063950;28;19908;-81
2021/06/13 15:47:55;;;;;;;;;;;;;;;;;;5063118;28;19915;-80
2021/06/13 15:50:21;;;;;;;;;;;;;;;;;;5063328;28;20292;-80
2021/06/13 15:52:46;;;;;;;;;;;;;;;;;;5063049;28;20358;-81
2021/06/13 15:55:12;;;;;;;;;;;;;;;;;;5063118;28;19908;-81
2021/06/13 15:57:37;;;;;;;;;;;;;;;;;;5062559;28;19908;-81
2021/06/13 16:00:04;;;;;;;;;;;;;;;;;;5080119;28;19965;-80
2021/06/13 16:02:29;;;;;;;;;;;;;;;;;;5063719;28;20393;-81
2021/06/13 16:04:54;;;;;;;;;;;;;;;;;;5080976;28;19908;-80
2021/06/13 16:07:19;;;;;;;;;;;;;;;;;;5081339;28;20423;-81
2021/06/13 16:09:44;;;;;;;;;;;;;;;;;;5080331;28;19907;-81
2021/06/13 16:12:10;;;;;;;;;;;;;;;;;;5080006;28;20338;-81
2021/06/13 16:14:36;;;;;;;;;;;;;;;;;;5080623;28;19911;-81
2021/06/13 16:17:01;;;;;;;;;;;;;;;;;;5063843;28;19912;-81
2021/06/13 16:19:26;;;;;;;;;;;;;;;;;;5080163;28;20362;-81
2021/06/13 16:21:51;;;;;;;;;;;;;;;;;;5064013;28;19912;-81
2021/06/13 16:24:17;;;;;;;;;;;;;;;;;;5063708;28;20263;-81
2021/06/13 16:26:42;;;;;;;;;;;;;;;;;;5081138;28;20009;-81
2021/06/13 16:29:07;;;;;;;;;;;;;;;;;;5064343;28;20011;-81
2021/06/13 16:31:32;;;;;;;;;;;;;;;;;;5063187;28;19912;-81
2021/06/13 16:33:58;;;;;;;;;;;;;;;;;;5063475;28;19912;-81
2021/06/13 16:36:23;;;;;;;;;;;;;;;;;;5064518;28;19908;-81
2021/06/13 16:38:48;;;;;;;;;;;;;;;;;;5079705;28;20010;-81
2021/06/13 16:41:13;;;;;;;;;;;;;;;;;;5080012;28;19908;-81
2021/06/13 16:43:39;;;;;;;;;;;;;;;;;;5063419;28;19947;-80
2021/06/13 16:46:04;;;;;;;;;;;;;;;;;;5080506;28;19916;-81
2021/06/13 16:48:29;;;;;;;;;;;;;;;;;;5063671;28;19915;-81